Huvudsida
METAR-TAF:

METAR-TAF

Flygplatser :

Sørkjosens flygplats

Sørkjosen, Norge

latitud: 69-47N, longitud: 020-58E, höjd: 0 m

Aktuellt väderrapport

Denna rapport gjordes för 1 timme och 48 minuter sedan, klockan 18:50 UTC
Vind 13 kt från sydost
Temperatur -12°C
Fuktighet 66%
Tryck 1013 hPa
Sikt 10 km eller mer
Inga moln under 1 500 m eller inga cumulonimbus

METAR: ENSR 261850Z 14013KT CAVOK M12/M17 Q1013 RMK WIND 1119FT 15014KT

Tid: 21:38 (20:38 UTC)


TAF: saknas

Aktuella väderrapporter och prognoser från 4000 flygplatser (METAR- och TAF-rapporter).

De tillgängliga stationerna syns som gula och röda prickar på kartan.

För musen över prickarna för att se namnen på stationerna.

Klicka sedan för att få väderrapporter och prognoser.

För att ändra kartan: Klicka på de gröna knapparna med ett svart kors på för att zooma in; den gröna knappen med ett streck på för att zooma ut; eller på de gröna pilarna för angränsande kartor.


METAR-TAF: